sensor_id;sensor_type;location;lat;lon;timestamp;pressure;altitude;pressure_sealevel;temperature;humidity
22311;BME280;11323;49.610;11.016;2024-01-15T00:03:34;96971.66;;;-0.14;69.67
22311;BME280;11323;49.610;11.016;2024-01-15T00:08:35;96991.28;;;-0.17;69.40
22311;BME280;11323;49.610;11.016;2024-01-15T00:13:36;96984.00;;;-0.21;69.43
22311;BME280;11323;49.610;11.016;2024-01-15T00:18:37;96972.66;;;-0.15;68.85
22311;BME280;11323;49.610;11.016;2024-01-15T00:23:43;96966.59;;;-0.22;69.61
22311;BME280;11323;49.610;11.016;2024-01-15T00:28:47;96969.03;;;-0.21;68.77
22311;BME280;11323;49.610;11.016;2024-01-15T00:33:48;96962.34;;;-0.23;69.30
22311;BME280;11323;49.610;11.016;2024-01-15T00:38:49;96946.56;;;-0.17;68.76
22311;BME280;11323;49.610;11.016;2024-01-15T00:43:50;96927.53;;;-0.19;68.93
22311;BME280;11323;49.610;11.016;2024-01-15T00:48:51;96922.25;;;-0.19;69.02
22311;BME280;11323;49.610;11.016;2024-01-15T00:53:52;96943.31;;;-0.25;69.76
22311;BME280;11323;49.610;11.016;2024-01-15T00:58:53;96946.16;;;-0.20;69.12
22311;BME280;11323;49.610;11.016;2024-01-15T01:03:54;96963.56;;;-0.13;69.10
22311;BME280;11323;49.610;11.016;2024-01-15T01:08:55;96952.22;;;-0.13;69.50
22311;BME280;11323;49.610;11.016;2024-01-15T01:13:56;96948.59;;;-0.12;69.61
22311;BME280;11323;49.610;11.016;2024-01-15T01:18:57;96940.91;;;-0.20;69.07
22311;BME280;11323;49.610;11.016;2024-01-15T01:23:58;96949.41;;;-0.18;69.59
22311;BME280;11323;49.610;11.016;2024-01-15T01:28:59;96945.56;;;-0.16;69.45
22311;BME280;11323;49.610;11.016;2024-01-15T01:34:00;96936.22;;;-0.12;69.52
22311;BME280;11323;49.610;11.016;2024-01-15T01:39:01;96931.97;;;-0.06;69.55
22311;BME280;11323;49.610;11.016;2024-01-15T01:44:02;96934.00;;;-0.08;69.18
22311;BME280;11323;49.610;11.016;2024-01-15T01:49:03;96926.72;;;-0.06;69.83
22311;BME280;11323;49.610;11.016;2024-01-15T01:54:07;96930.94;;;-0.05;69.14
22311;BME280;11323;49.610;11.016;2024-01-15T01:59:11;96922.25;;;-0.06;69.51
22311;BME280;11323;49.610;11.016;2024-01-15T02:04:12;96938.03;;;0.01;69.19
22311;BME280;11323;49.610;11.016;2024-01-15T02:09:13;96925.91;;;0.00;69.08
22311;BME280;11323;49.610;11.016;2024-01-15T02:14:15;96922.66;;;-0.02;68.99
22311;BME280;11323;49.610;11.016;2024-01-15T02:19:17;96918.19;;;-0.02;69.73
22311;BME280;11323;49.610;11.016;2024-01-15T02:24:18;96918.19;;;0.05;69.76
22311;BME280;11323;49.610;11.016;2024-01-15T02:29:20;96912.50;;;0.08;69.54
22311;BME280;11323;49.610;11.016;2024-01-15T02:34:21;96914.13;;;0.09;69.48
22311;BME280;11323;49.610;11.016;2024-01-15T02:39:22;96919.19;;;0.11;69.68
22311;BME280;11323;49.610;11.016;2024-01-15T02:44:23;96919.19;;;0.11;69.73
22311;BME280;11323;49.610;11.016;2024-01-15T02:49:24;96910.06;;;0.13;69.49
22311;BME280;11323;49.610;11.016;2024-01-15T02:54:25;96915.31;;;0.20;68.87
22311;BME280;11323;49.610;11.016;2024-01-15T02:59:26;96913.28;;;0.22;69.54
22311;BME280;11323;49.610;11.016;2024-01-15T03:04:27;96916.13;;;0.20;69.90
22311;BME280;11323;49.610;11.016;2024-01-15T03:09:28;96905.19;;;0.23;69.28
22311;BME280;11323;49.610;11.016;2024-01-15T03:14:29;96912.06;;;0.24;69.69
22311;BME280;11323;49.610;11.016;2024-01-15T03:19:30;96912.06;;;0.24;70.06
22311;BME280;11323;49.610;11.016;2024-01-15T03:24:32;96914.88;;;0.29;69.73
22311;BME280;11323;49.610;11.016;2024-01-15T03:29:33;96897.91;;;0.25;69.55
22311;BME280;11323;49.610;11.016;2024-01-15T03:34:34;96897.03;;;0.31;69.65
22311;BME280;11323;49.610;11.016;2024-01-15T03:39:35;96882.28;;;0.30;70.23
22311;BME280;11323;49.610;11.016;2024-01-15T03:44:36;96875.97;;;0.31;69.53
22311;BME280;11323;49.610;11.016;2024-01-15T03:49:37;96872.34;;;0.32;69.81
22311;BME280;11323;49.610;11.016;2024-01-15T03:54:38;96874.38;;;0.37;69.36
22311;BME280;11323;49.610;11.016;2024-01-15T03:59:41;96876.34;;;0.41;69.81
22311;BME280;11323;49.610;11.016;2024-01-15T04:04:43;96874.91;;;0.45;69.87
22311;BME280;11323;49.610;11.016;2024-01-15T04:09:44;96861.75;;;0.45;69.79
22311;BME280;11323;49.610;11.016;2024-01-15T04:14:45;96873.50;;;0.49;70.10
22311;BME280;11323;49.610;11.016;2024-01-15T04:19:46;96865.59;;;0.49;69.46
22311;BME280;11323;49.610;11.016;2024-01-15T04:24:48;96862.94;;;0.49;69.63
22311;BME280;11323;49.610;11.016;2024-01-15T04:29:49;96870.22;;;0.54;69.89
22311;BME280;11323;49.610;11.016;2024-01-15T04:34:50;96866.19;;;0.51;69.62
22311;BME280;11323;49.610;11.016;2024-01-15T04:39:51;96856.47;;;0.52;69.32
22311;BME280;11323;49.610;11.016;2024-01-15T04:44:55;96851.97;;;0.52;70.05
22311;BME280;11323;49.610;11.016;2024-01-15T04:49:56;96853.59;;;0.53;69.38
22311;BME280;11323;49.610;11.016;2024-01-15T04:54:57;96845.09;;;0.51;69.51
22311;BME280;11323;49.610;11.016;2024-01-15T04:59:58;96836.38;;;0.51;69.96
22311;BME280;11323;49.610;11.016;2024-01-15T05:04:59;96834.13;;;0.54;69.93
22311;BME280;11323;49.610;11.016;2024-01-15T05:10:00;96834.72;;;0.63;70.13
22311;BME280;11323;49.610;11.016;2024-01-15T05:15:02;96838.56;;;0.60;69.90
22311;BME280;11323;49.610;11.016;2024-01-15T05:20:03;96843.44;;;0.63;69.74
22311;BME280;11323;49.610;11.016;2024-01-15T05:25:06;96838.75;;;0.65;70.22
22311;BME280;11323;49.610;11.016;2024-01-15T05:30:07;96842.59;;;0.69;69.50
22311;BME280;11323;49.610;11.016;2024-01-15T05:35:08;96833.25;;;0.73;69.81
22311;BME280;11323;49.610;11.016;2024-01-15T05:40:10;96828.34;;;0.77;69.97
22311;BME280;11323;49.610;11.016;2024-01-15T05:45:11;96826.34;;;0.72;69.67
22311;BME280;11323;49.610;11.016;2024-01-15T05:50:12;96833.41;;;0.78;69.43
22311;BME280;11323;49.610;11.016;2024-01-15T05:55:13;96819.78;;;0.81;69.24
22311;BME280;11323;49.610;11.016;2024-01-15T06:00:15;96835.19;;;0.84;69.92
22311;BME280;11323;49.610;11.016;2024-01-15T06:05:16;96823.50;;;0.74;70.06
22311;BME280;11323;49.610;11.016;2024-01-15T06:10:17;96824.31;;;0.74;69.35
22311;BME280;11323;49.610;11.016;2024-01-15T06:15:18;96826.72;;;0.76;69.95
22311;BME280;11323;49.610;11.016;2024-01-15T06:20:19;96824.69;;;0.78;70.53
22311;BME280;11323;49.610;11.016;2024-01-15T06:25:20;96834.63;;;0.76;70.42
22311;BME280;11323;49.610;11.016;2024-01-15T06:30:21;96826.31;;;0.79;70.75
22311;BME280;11323;49.610;11.016;2024-01-15T06:35:23;96827.09;;;0.79;69.70
22311;BME280;11323;49.610;11.016;2024-01-15T06:40:24;96820.22;;;0.78;69.95
22311;BME280;11323;49.610;11.016;2024-01-15T06:45:25;96825.50;;;0.78;70.13
22311;BME280;11323;49.610;11.016;2024-01-15T06:50:26;96832.06;;;0.69;70.21
22311;BME280;11323;49.610;11.016;2024-01-15T06:55:27;96836.06;;;0.72;70.63
22311;BME280;11323;49.610;11.016;2024-01-15T07:00:29;96832.38;;;0.79;69.86
22311;BME280;11323;49.610;11.016;2024-01-15T07:05:31;96840.72;;;0.76;69.96
22311;BME280;11323;49.610;11.016;2024-01-15T07:11:13;96803.31;;;0.61;70.09
22311;BME280;11323;49.610;11.016;2024-01-15T07:16:17;96833.25;;;0.73;70.40
22311;BME280;11323;49.610;11.016;2024-01-15T07:21:18;96854.50;;;0.78;70.20
22311;BME280;11323;49.610;11.016;2024-01-15T07:26:22;96843.94;;;0.78;70.02
22311;BME280;11323;49.610;11.016;2024-01-15T07:31:23;96849.00;;;0.80;70.86
22311;BME280;11323;49.610;11.016;2024-01-15T07:36:24;96849.81;;;0.80;70.84
22311;BME280;11323;49.610;11.016;2024-01-15T07:41:25;96863.59;;;0.82;70.68
22311;BME280;11323;49.610;11.016;2024-01-15T07:46:28;96854.66;;;0.83;70.39
22311;BME280;11323;49.610;11.016;2024-01-15T07:51:29;96855.09;;;0.80;70.66
22311;BME280;11323;49.610;11.016;2024-01-15T07:56:33;96856.53;;;0.76;70.59
22311;BME280;11323;49.610;11.016;2024-01-15T08:01:34;96858.72;;;0.79;70.42
22311;BME280;11323;49.610;11.016;2024-01-15T08:06:38;96868.28;;;0.74;70.80
22311;BME280;11323;49.610;11.016;2024-01-15T08:19:16;96867.88;;;0.77;71.37
22311;BME280;11323;49.610;11.016;2024-01-15T08:30:06;96866.84;;;0.84;70.86
22311;BME280;11323;49.610;11.016;2024-01-15T08:35:09;96855.84;;;0.87;70.69
22311;BME280;11323;49.610;11.016;2024-01-15T08:40:10;96859.28;;;0.95;71.14
22311;BME280;11323;49.610;11.016;2024-01-15T08:45:12;96853.19;;;0.94;71.01
22311;BME280;11323;49.610;11.016;2024-01-15T08:50:13;96852.56;;;0.99;70.91
22311;BME280;11323;49.610;11.016;2024-01-15T08:55:14;96850.09;;;1.04;71.28
22311;BME280;11323;49.610;11.016;2024-01-15T09:00:16;96850.09;;;1.04;70.66
22311;BME280;11323;49.610;11.016;2024-01-15T09:05:17;96841.91;;;1.12;70.64
22311;BME280;11323;49.610;11.016;2024-01-15T09:10:19;96844.28;;;1.20;70.48
22311;BME280;11323;49.610;11.016;2024-01-15T09:15:20;96836.53;;;1.25;70.30
22311;BME280;11323;49.610;11.016;2024-01-15T09:20:21;96850.47;;;1.32;70.15
22311;BME280;11323;49.610;11.016;2024-01-15T09:25:22;96850.22;;;1.40;70.79
22311;BME280;11323;49.610;11.016;2024-01-15T09:30:23;96831.59;;;1.35;70.37
22311;BME280;11323;49.610;11.016;2024-01-15T09:35:24;96845.78;;;1.34;70.61
22311;BME280;11323;49.610;11.016;2024-01-15T09:40:25;96857.53;;;1.38;70.84
22311;BME280;11323;49.610;11.016;2024-01-15T09:45:29;96858.56;;;1.37;70.45
22311;BME280;11323;49.610;11.016;2024-01-15T09:50:31;96858.34;;;1.38;70.74
22311;BME280;11323;49.610;11.016;2024-01-15T09:55:32;96860.41;;;1.36;70.60
22311;BME280;11323;49.610;11.016;2024-01-15T10:00:34;96866.47;;;1.37;70.87
22311;BME280;11323;49.610;11.016;2024-01-15T10:05:39;96855.13;;;1.36;70.99
22311;BME280;11323;49.610;11.016;2024-01-15T10:10:41;96849.03;;;1.36;71.25
22311;BME280;11323;49.610;11.016;2024-01-15T10:15:46;96841.88;;;1.43;70.70
22311;BME280;11323;49.610;11.016;2024-01-15T10:20:48;96837.63;;;1.42;71.02
22311;BME280;11323;49.610;11.016;2024-01-15T10:25:49;96827.25;;;1.47;70.95
22311;BME280;11323;49.610;11.016;2024-01-15T10:30:55;96812.38;;;1.52;70.84
22311;BME280;11323;49.610;11.016;2024-01-15T10:35:57;96801.44;;;1.49;70.45
22311;BME280;11323;49.610;11.016;2024-01-15T10:41:00;96809.13;;;1.50;71.25
22311;BME280;11323;49.610;11.016;2024-01-15T10:46:01;96800.00;;;1.53;70.66
22311;BME280;11323;49.610;11.016;2024-01-15T10:51:04;96798.50;;;1.57;70.90
22311;BME280;11323;49.610;11.016;2024-01-15T10:56:11;96793.41;;;1.62;71.08
22311;BME280;11323;49.610;11.016;2024-01-15T11:01:14;96790.38;;;1.58;70.92
22311;BME280;11323;49.610;11.016;2024-01-15T11:06:19;96778.56;;;1.61;70.96
22311;BME280;11323;49.610;11.016;2024-01-15T11:11:21;96780.34;;;1.67;70.89
22311;BME280;11323;49.610;11.016;2024-01-15T11:16:22;96773.00;;;1.69;70.74
22311;BME280;11323;49.610;11.016;2024-01-15T11:21:25;96784.09;;;1.77;70.72
22311;BME280;11323;49.610;11.016;2024-01-15T11:41:50;96761.00;;;1.73;70.86
22311;BME280;11323;49.610;11.016;2024-01-15T11:47:02;96767.91;;;1.74;71.16
22311;BME280;11323;49.610;11.016;2024-01-15T11:52:05;96761.56;;;1.75;71.05
22311;BME280;11323;49.610;11.016;2024-01-15T11:57:22;96758.06;;;1.81;70.80
22311;BME280;11323;49.610;11.016;2024-01-15T12:02:26;96759.25;;;1.85;70.72
22311;BME280;11323;49.610;11.016;2024-01-15T12:07:27;96757.59;;;1.84;70.71
22311;BME280;11323;49.610;11.016;2024-01-15T12:12:57;96744.34;;;1.91;71.07
22311;BME280;11323;49.610;11.016;2024-01-15T12:18:01;96746.63;;;1.87;71.17
22311;BME280;11323;49.610;11.016;2024-01-15T12:23:03;96746.09;;;1.78;71.04
22311;BME280;11323;49.610;11.016;2024-01-15T12:28:05;96750.44;;;1.73;70.91
22311;BME280;11323;49.610;11.016;2024-01-15T12:33:07;96762.75;;;1.79;70.93
22311;BME280;11323;49.610;11.016;2024-01-15T12:38:10;96747.97;;;1.78;70.78
22311;BME280;11323;49.610;11.016;2024-01-15T12:43:12;96740.16;;;1.83;71.10
22311;BME280;11323;49.610;11.016;2024-01-15T12:48:14;96742.16;;;1.88;71.29
22311;BME280;11323;49.610;11.016;2024-01-15T12:53:18;96732.31;;;1.95;71.07
22311;BME280;11323;49.610;11.016;2024-01-15T12:58:19;96725.78;;;1.97;70.78
22311;BME280;11323;49.610;11.016;2024-01-15T13:03:22;96729.44;;;1.96;70.82
22311;BME280;11323;49.610;11.016;2024-01-15T13:08:23;96729.44;;;1.96;71.16
22311;BME280;11323;49.610;11.016;2024-01-15T13:13:27;96745.75;;;1.93;70.93
22311;BME280;11323;49.610;11.016;2024-01-15T13:18:28;96751.16;;;1.98;71.10
22311;BME280;11323;49.610;11.016;2024-01-15T13:23:29;96751.03;;;1.93;70.82
22311;BME280;11323;49.610;11.016;2024-01-15T13:28:30;96743.97;;;1.87;70.83
22311;BME280;11323;49.610;11.016;2024-01-15T13:33:31;96739.88;;;1.91;71.33
22311;BME280;11323;49.610;11.016;2024-01-15T13:38:32;96752.31;;;1.84;71.31
22311;BME280;11323;49.610;11.016;2024-01-15T13:43:37;96745.09;;;1.79;71.30
22311;BME280;11323;49.610;11.016;2024-01-15T13:48:37;96736.94;;;1.81;71.07
22311;BME280;11323;49.610;11.016;2024-01-15T13:53:39;96740.16;;;1.83;71.25
22311;BME280;11323;49.610;11.016;2024-01-15T13:58:40;96737.66;;;1.88;71.20
22311;BME280;11323;49.610;11.016;2024-01-15T14:03:41;96738.41;;;1.95;71.30
22311;BME280;11323;49.610;11.016;2024-01-15T14:08:42;96734.97;;;1.95;71.19
22311;BME280;11323;49.610;11.016;2024-01-15T14:13:43;96742.66;;;1.96;70.96
22311;BME280;11323;49.610;11.016;2024-01-15T14:18:44;96732.66;;;1.98;71.22
22311;BME280;11323;49.610;11.016;2024-01-15T14:23:45;96744.69;;;1.94;71.28
22311;BME280;11323;49.610;11.016;2024-01-15T14:28:46;96759.25;;;1.85;71.09
22311;BME280;11323;49.610;11.016;2024-01-15T14:33:47;96751.38;;;1.78;71.39
22311;BME280;11323;49.610;11.016;2024-01-15T14:38:48;96757.03;;;1.82;71.36
22311;BME280;11323;49.610;11.016;2024-01-15T14:43:49;96757.34;;;1.74;71.39
22311;BME280;11323;49.610;11.016;2024-01-15T14:48:50;96764.59;;;1.78;71.55
22311;BME280;11323;49.610;11.016;2024-01-15T14:53:51;96761.75;;;1.80;71.72
22311;BME280;11323;49.610;11.016;2024-01-15T14:58:52;96764.94;;;1.82;71.45
22311;BME280;11323;49.610;11.016;2024-01-15T15:03:53;96754.38;;;1.82;71.56
22311;BME280;11323;49.610;11.016;2024-01-15T15:08:54;96761.88;;;1.85;71.31
22311;BME280;11323;49.610;11.016;2024-01-15T15:13:57;96768.41;;;1.82;71.71
22311;BME280;11323;49.610;11.016;2024-01-15T15:18:58;96769.28;;;1.76;71.67
22311;BME280;11323;49.610;11.016;2024-01-15T15:24:00;96779.69;;;1.71;71.71
22311;BME280;11323;49.610;11.016;2024-01-15T15:29:01;96793.13;;;1.70;71.77
22311;BME280;11323;49.610;11.016;2024-01-15T15:34:02;96807.78;;;1.66;71.90
22311;BME280;11323;49.610;11.016;2024-01-15T15:39:03;96810.19;;;1.67;72.37
22311;BME280;11323;49.610;11.016;2024-01-15T15:44:05;96813.78;;;1.73;71.82
22311;BME280;11323;49.610;11.016;2024-01-15T15:49:06;96823.34;;;1.74;71.83
22311;BME280;11323;49.610;11.016;2024-01-15T15:54:07;96836.53;;;1.74;72.02
22311;BME280;11323;49.610;11.016;2024-01-15T15:59:08;96844.13;;;1.64;72.01
22311;BME280;11323;49.610;11.016;2024-01-15T16:04:09;96855.50;;;1.64;72.11
22311;BME280;11323;49.610;11.016;2024-01-15T16:09:10;96865.25;;;1.64;71.97
22311;BME280;11323;49.610;11.016;2024-01-15T16:14:11;96870.09;;;1.67;72.41
22311;BME280;11323;49.610;11.016;2024-01-15T16:19:12;96872.50;;;1.68;72.23
22311;BME280;11323;49.610;11.016;2024-01-15T16:24:13;96873.91;;;1.71;72.21
22311;BME280;11323;49.610;11.016;2024-01-15T16:29:14;96875.53;;;1.72;72.24
22311;BME280;11323;49.610;11.016;2024-01-15T16:34:15;96891.56;;;1.70;71.99
22311;BME280;11323;49.610;11.016;2024-01-15T16:39:16;96887.31;;;1.69;71.95
22311;BME280;11323;49.610;11.016;2024-01-15T16:44:17;96895.63;;;1.73;72.07
22311;BME280;11323;49.610;11.016;2024-01-15T16:49:18;96896.22;;;1.75;72.04
22311;BME280;11323;49.610;11.016;2024-01-15T16:54:19;96907.22;;;1.72;72.15
22311;BME280;11323;49.610;11.016;2024-01-15T16:59:21;96900.91;;;1.73;72.24
22311;BME280;11323;49.610;11.016;2024-01-15T17:04:22;96903.97;;;1.70;71.91
22311;BME280;11323;49.610;11.016;2024-01-15T17:09:23;96923.91;;;1.66;72.30
22311;BME280;11323;49.610;11.016;2024-01-15T17:14:24;96927.16;;;1.68;72.21
22311;BME280;11323;49.610;11.016;2024-01-15T17:19:25;96926.38;;;1.61;72.45
22311;BME280;11323;49.610;11.016;2024-01-15T17:24:27;96937.38;;;1.58;72.04
22311;BME280;11323;49.610;11.016;2024-01-15T17:29:29;96935.31;;;1.60;72.07
22311;BME280;11323;49.610;11.016;2024-01-15T17:34:30;96928.41;;;1.59;72.36
22311;BME280;11323;49.610;11.016;2024-01-15T17:39:31;96939.56;;;1.61;72.18
22311;BME280;11323;49.610;11.016;2024-01-15T17:44:32;96931.06;;;1.59;72.01
22311;BME280;11323;49.610;11.016;2024-01-15T17:49:33;96934.13;;;1.56;72.06
22311;BME280;11323;49.610;11.016;2024-01-15T17:54:34;96942.66;;;1.58;72.17
22311;BME280;11323;49.610;11.016;2024-01-15T17:59:35;96941.78;;;1.64;72.52
22311;BME280;11323;49.610;11.016;2024-01-15T18:04:36;96947.06;;;1.64;72.10
22311;BME280;11323;49.610;11.016;2024-01-15T18:09:38;96962.91;;;1.64;72.26
22311;BME280;11323;49.610;11.016;2024-01-15T18:14:39;96964.50;;;1.65;72.00
22311;BME280;11323;49.610;11.016;2024-01-15T18:19:40;96956.59;;;1.65;71.94
22311;BME280;11323;49.610;11.016;2024-01-15T18:24:44;96965.78;;;1.62;72.29
22311;BME280;11323;49.610;11.016;2024-01-15T18:29:45;96979.16;;;1.61;72.04
22311;BME280;11323;49.610;11.016;2024-01-15T18:34:46;96979.16;;;1.61;71.75
22311;BME280;11323;49.610;11.016;2024-01-15T18:39:47;96994.59;;;1.64;71.97
22311;BME280;11323;49.610;11.016;2024-01-15T18:44:48;97000.25;;;1.67;72.05
22311;BME280;11323;49.610;11.016;2024-01-15T18:49:49;97029.06;;;1.69;71.94
22311;BME280;11323;49.610;11.016;2024-01-15T18:54:50;97027.84;;;1.65;71.43
22311;BME280;11323;49.610;11.016;2024-01-15T18:59:51;97030.50;;;1.65;71.77
22311;BME280;11323;49.610;11.016;2024-01-15T19:04:52;97038.00;;;1.68;71.23
22311;BME280;11323;49.610;11.016;2024-01-15T19:09:54;97037.63;;;1.64;71.76
22311;BME280;11323;49.610;11.016;2024-01-15T19:14:55;97046.94;;;1.67;72.02
22311;BME280;11323;49.610;11.016;2024-01-15T19:19:56;97039.22;;;1.65;71.92
22311;BME280;11323;49.610;11.016;2024-01-15T19:24:57;97052.22;;;1.67;71.27
22311;BME280;11323;49.610;11.016;2024-01-15T19:29:58;97052.06;;;1.62;71.58
22311;BME280;11323;49.610;11.016;2024-01-15T19:34:59;97057.69;;;1.72;71.33
22311;BME280;11323;49.610;11.016;2024-01-15T19:40:01;97080.25;;;1.68;71.50
22311;BME280;11323;49.610;11.016;2024-01-15T19:45:04;97091.56;;;1.75;71.50
22311;BME280;11323;49.610;11.016;2024-01-15T19:50:06;97092.59;;;1.74;71.40
22311;BME280;11323;49.610;11.016;2024-01-15T19:55:08;97118.19;;;1.73;71.33
22311;BME280;11323;49.610;11.016;2024-01-15T20:00:09;97116.53;;;1.79;71.27
22311;BME280;11323;49.610;11.016;2024-01-15T20:05:11;97120.38;;;1.76;71.21
22311;BME280;11323;49.610;11.016;2024-01-15T20:10:14;97127.72;;;1.74;71.28
22311;BME280;11323;49.610;11.016;2024-01-15T20:15:15;97142.75;;;1.74;71.29
22311;BME280;11323;49.610;11.016;2024-01-15T20:20:16;97147.59;;;1.77;71.12
22311;BME280;11323;49.610;11.016;2024-01-15T20:25:17;97161.84;;;1.76;70.91
22311;BME280;11323;49.610;11.016;2024-01-15T20:30:19;97164.47;;;1.76;71.03
22311;BME280;11323;49.610;11.016;2024-01-15T20:35:22;97169.75;;;1.76;71.16
22311;BME280;11323;49.610;11.016;2024-01-15T20:40:23;97178.88;;;1.80;71.38
22311;BME280;11323;49.610;11.016;2024-01-15T20:45:24;97179.91;;;1.79;71.33
22311;BME280;11323;49.610;11.016;2024-01-15T20:50:25;97189.00;;;1.83;71.17
22311;BME280;11323;49.610;11.016;2024-01-15T20:55:26;97191.06;;;1.81;71.10
22311;BME280;11323;49.610;11.016;2024-01-15T21:00:28;97199.19;;;1.73;70.94
22311;BME280;11323;49.610;11.016;2024-01-15T21:05:29;97202.44;;;1.75;71.30
22311;BME280;11323;49.610;11.016;2024-01-15T21:10:30;97205.53;;;1.72;71.34
22311;BME280;11323;49.610;11.016;2024-01-15T21:15:31;97220.72;;;1.76;71.23
22311;BME280;11323;49.610;11.016;2024-01-15T21:20:32;97217.84;;;1.84;70.99
22311;BME280;11323;49.610;11.016;2024-01-15T21:25:34;97225.16;;;1.82;70.76
22311;BME280;11323;49.610;11.016;2024-01-15T21:30:35;97223.56;;;1.81;71.14
22311;BME280;11323;49.610;11.016;2024-01-15T21:35:36;97233.53;;;1.73;71.14
22311;BME280;11323;49.610;11.016;2024-01-15T21:40:38;97241.03;;;1.76;71.12
22311;BME280;11323;49.610;11.016;2024-01-15T21:45:39;97232.09;;;1.77;71.23
22311;BME280;11323;49.610;11.016;2024-01-15T21:50:41;97242.88;;;1.69;71.14
22311;BME280;11323;49.610;11.016;2024-01-15T21:55:43;97239.63;;;1.73;71.10
22311;BME280;11323;49.610;11.016;2024-01-15T22:00:44;97249.38;;;1.73;70.93
22311;BME280;11323;49.610;11.016;2024-01-15T22:05:45;97258.50;;;1.70;71.23
22311;BME280;11323;49.610;11.016;2024-01-15T22:10:47;97261.97;;;1.71;70.93
22311;BME280;11323;49.610;11.016;2024-01-15T22:15:48;97269.47;;;1.74;71.18
22311;BME280;11323;49.610;11.016;2024-01-15T22:20:49;97278.84;;;1.70;70.92
22311;BME280;11323;49.610;11.016;2024-01-15T22:25:50;97291.44;;;1.68;71.10
22311;BME280;11323;49.610;11.016;2024-01-15T22:30:51;97297.09;;;1.71;71.45
22311;BME280;11323;49.610;11.016;2024-01-15T22:35:53;97300.75;;;1.77;71.22
22311;BME280;11323;49.610;11.016;2024-01-15T22:40:54;97312.50;;;1.81;71.01
22311;BME280;11323;49.610;11.016;2024-01-15T22:45:55;97315.75;;;1.83;71.04
22311;BME280;11323;49.610;11.016;2024-01-15T22:50:56;97323.69;;;1.83;70.91
22311;BME280;11323;49.610;11.016;2024-01-15T22:55:57;97317.38;;;1.84;70.88
22311;BME280;11323;49.610;11.016;2024-01-15T23:00:59;97328.75;;;1.84;70.75
22311;BME280;11323;49.610;11.016;2024-01-15T23:06:00;97348.06;;;1.85;70.86
22311;BME280;11323;49.610;11.016;2024-01-15T23:11:01;97354.75;;;1.81;70.64
22311;BME280;11323;49.610;11.016;2024-01-15T23:16:02;97359.44;;;1.72;71.23
22311;BME280;11323;49.610;11.016;2024-01-15T23:21:03;97360.47;;;1.78;70.87
22311;BME280;11323;49.610;11.016;2024-01-15T23:26:04;97359.25;;;1.74;70.59
22311;BME280;11323;49.610;11.016;2024-01-15T23:31:06;97355.38;;;1.70;70.77
22311;BME280;11323;49.610;11.016;2024-01-15T23:36:08;97368.16;;;1.73;70.66
22311;BME280;11323;49.610;11.016;2024-01-15T23:41:20;97370.59;;;1.74;70.76
22311;BME280;11323;49.610;11.016;2024-01-15T23:46:21;97379.34;;;1.75;71.01
22311;BME280;11323;49.610;11.016;2024-01-15T23:51:24;97377.91;;;1.72;70.58
22311;BME280;11323;49.610;11.016;2024-01-15T23:56:25;97380.75;;;1.71;70.49
